Time;durP1;ratioP1;P1;durP2;ratioP2;P2;SDS_P1;SDS_P2;PMS_P1;PMS_P2;Temp;Humidity;BMP_temperature;BMP_pressure;BME280_temperature;BME280_humidity;BME280_pressure;Samples;Min_cycle;Max_cycle;Signal;HPM_P1;HPM_P2
2022/09/27 00:01:20;;;;;;;3.85;1.17;;;11.90;99.90;;;;;;4045051;29;20488;-60
2022/09/27 00:03:20;;;;;;;3.95;1.13;;;12.00;99.90;;;;;;4044420;29;20545;-60
2022/09/27 00:05:21;;;;;;;4.03;1.15;;;12.00;99.90;;;;;;4040070;29;20060;-60
2022/09/27 00:07:22;;;;;;;2.53;1.40;;;12.00;99.90;;;;;;4045388;29;20485;-60
2022/09/27 00:09:22;;;;;;;3.20;1.20;;;12.00;99.90;;;;;;4043925;29;20037;-64
2022/09/27 00:11:32;;;;;;;4.43;1.25;;;12.00;99.90;;;;;;4044335;29;20032;-61
2022/09/27 00:13:33;;;;;;;2.97;1.20;;;12.00;99.90;;;;;;4039489;29;20040;-60
2022/09/27 00:15:33;;;;;;;7.00;1.58;;;12.10;99.90;;;;;;4042742;29;20425;-60
2022/09/27 00:17:34;;;;;;;5.13;1.40;;;12.00;99.90;;;;;;4047017;29;20037;-60
2022/09/27 00:19:35;;;;;;;4.38;1.38;;;12.10;99.90;;;;;;4038678;29;20101;-60
2022/09/27 00:21:36;;;;;;;5.55;1.50;;;12.10;99.90;;;;;;4042412;29;20048;-60
2022/09/27 00:23:37;;;;;;;5.13;1.17;;;12.10;99.90;;;;;;4044008;29;20408;-60
2022/09/27 00:25:38;;;;;;;3.28;1.50;;;12.10;99.90;;;;;;4043160;29;20047;-60
2022/09/27 00:27:38;;;;;;;3.25;1.48;;;12.10;99.90;;;;;;4037138;29;20135;-60
2022/09/27 00:29:39;;;;;;;5.20;1.73;;;12.10;99.90;;;;;;4044052;29;20041;-60
2022/09/27 00:31:40;;;;;;;4.35;1.70;;;12.10;99.90;;;;;;4045325;29;20036;-60
2022/09/27 00:33:40;;;;;;;6.40;1.65;;;12.10;99.90;;;;;;4039741;29;20032;-60
2022/09/27 00:35:41;;;;;;;5.43;2.00;;;12.10;99.90;;;;;;4040900;29;20040;-60
2022/09/27 00:37:41;;;;;;;6.03;2.00;;;12.00;99.90;;;;;;4041195;29;20037;-60
2022/09/27 00:39:42;;;;;;;3.70;1.60;;;12.00;99.90;;;;;;4041574;29;20032;-60
2022/09/27 00:41:44;;;;;;;7.40;1.95;;;12.00;99.90;;;;;;4038298;29;20052;-60
2022/09/27 00:43:55;;;;;;;6.55;1.80;;;12.10;99.90;;;;;;4039793;29;20036;-60
2022/09/27 00:46:01;;;;;;;8.10;1.92;;;12.00;99.90;;;;;;4042089;29;20033;-61
2022/09/27 00:48:04;;;;;;;3.72;1.70;;;12.00;99.90;;;;;;4042274;29;20509;-60
2022/09/27 00:50:26;;;;;;;5.47;1.90;;;12.00;99.90;;;;;;4042004;29;20984;-60
2022/09/27 00:52:47;;;;;;;5.45;1.63;;;12.00;99.90;;;;;;4045234;29;20045;-60
2022/09/27 00:54:53;;;;;;;4.50;1.70;;;12.00;99.90;;;;;;4047924;29;20044;-60
2022/09/27 00:56:55;;;;;;;6.07;1.60;;;12.00;99.90;;;;;;4036094;29;20437;-60
2022/09/27 00:59:02;;;;;;;4.32;1.25;;;12.00;99.90;;;;;;4041394;29;20082;-60
2022/09/27 01:01:06;;;;;;;4.63;1.30;;;12.00;99.90;;;;;;4040961;29;20036;-60
2022/09/27 01:03:11;;;;;;;6.18;1.63;;;12.00;99.90;;;;;;4040558;29;20043;-60
2022/09/27 01:05:16;;;;;;;6.70;2.03;;;12.00;99.90;;;;;;4040821;29;20061;-60
2022/09/27 01:07:17;;;;;;;1.88;1.23;;;12.00;99.90;;;;;;4043125;29;20037;-60
2022/09/27 01:09:18;;;;;;;5.35;1.63;;;12.00;99.90;;;;;;4040750;29;20131;-60
2022/09/27 01:11:33;;;;;;;4.30;1.38;;;12.00;99.90;;;;;;4039517;29;20493;-60
2022/09/27 01:14:00;;;;;;;9.48;1.90;;;12.00;99.90;;;;;;4064182;29;20405;-60
2022/09/27 01:16:23;;;;;;;6.35;2.03;;;12.00;99.90;;;;;;4041225;29;20040;-60
2022/09/27 01:18:41;;;;;;;6.35;2.28;;;12.00;99.90;;;;;;4043495;29;20036;-62
2022/09/27 01:20:55;;;;;;;3.35;1.33;;;11.90;99.90;;;;;;4037956;29;20059;-60
2022/09/27 01:23:14;;;;;;;5.13;1.80;;;11.90;99.90;;;;;;4042622;29;20029;-60
2022/09/27 01:25:58;;;;;;;2.53;1.33;;;11.90;99.90;;;;;;4039067;29;20075;-60
2022/09/27 01:28:17;;;;;;;6.07;1.40;;;11.90;99.90;;;;;;4040920;29;20029;-61
2022/09/27 01:30:42;;;;;;;3.75;1.75;;;12.00;99.90;;;;;;4037837;29;20036;-60
2022/09/27 01:32:57;;;;;;;8.00;2.10;;;12.00;99.90;;;;;;4042080;29;20041;-60
2022/09/27 01:35:32;;;;;;;3.33;1.77;;;12.00;99.90;;;;;;4040343;29;20064;-60
2022/09/27 01:37:54;;;;;;;7.22;2.03;;;12.00;99.90;;;;;;4040929;29;20099;-60
2022/09/27 01:40:03;;;;;;;5.45;2.38;;;12.00;99.90;;;;;;4042466;29;20033;-61
2022/09/27 01:42:23;;;;;;;3.67;1.60;;;11.90;99.90;;;;;;4040289;29;20400;-60
2022/09/27 01:44:34;;;;;;;5.50;2.00;;;11.90;99.90;;;;;;4038315;29;20048;-61
2022/09/27 01:46:46;;;;;;;8.55;2.40;;;11.90;99.90;;;;;;4037646;29;20057;-60
2022/09/27 01:48:49;;;;;;;6.75;2.00;;;11.90;99.90;;;;;;4040670;29;20048;-60
2022/09/27 01:51:07;;;;;;;10.85;2.60;;;11.90;99.90;;;;;;4040377;29;20036;-60
2022/09/27 01:53:17;;;;;;;3.72;1.60;;;11.80;99.90;;;;;;4046581;29;20059;-60
2022/09/27 01:55:22;;;;;;;3.60;1.70;;;11.90;99.90;;;;;;4041927;29;20100;-60
2022/09/27 01:57:26;;;;;;;4.03;1.98;;;11.90;99.90;;;;;;4038953;29;20041;-60
2022/09/27 01:59:47;;;;;;;4.05;1.70;;;11.90;99.90;;;;;;4041585;29;20033;-64
2022/09/27 02:01:51;;;;;;;5.10;1.90;;;11.90;99.90;;;;;;4042915;29;20139;-60
2022/09/27 02:03:53;;;;;;;8.82;2.47;;;11.80;99.90;;;;;;4042209;29;20057;-60
2022/09/27 02:06:03;;;;;;;4.80;1.77;;;11.80;99.90;;;;;;4042763;29;20036;-62
2022/09/27 02:08:41;;;;;;;5.00;1.60;;;11.80;99.90;;;;;;4041348;29;20265;-60
2022/09/27 02:10:44;;;;;;;6.70;1.83;;;11.80;99.90;;;;;;4041802;29;20492;-60
2022/09/27 02:13:00;;;;;;;5.43;1.52;;;11.80;99.90;;;;;;4041730;29;20492;-60
2022/09/27 02:15:11;;;;;;;7.07;1.90;;;11.80;99.90;;;;;;4039405;29;20047;-61
2022/09/27 02:17:46;;;;;;;5.03;1.83;;;11.70;99.90;;;;;;4037228;29;20068;-60
2022/09/27 02:20:01;;;;;;;4.85;1.55;;;11.70;99.90;;;;;;4037024;29;20048;-60
2022/09/27 02:22:28;;;;;;;7.75;2.17;;;11.80;99.90;;;;;;4038319;29;20416;-60
2022/09/27 02:24:59;;;;;;;5.97;2.10;;;11.80;99.90;;;;;;4038931;29;20116;-61
2022/09/27 02:27:17;;;;;;;3.65;1.50;;;11.70;99.90;;;;;;4049389;29;20045;-60
2022/09/27 02:29:31;;;;;;;7.88;2.10;;;11.70;99.90;;;;;;4042618;29;20569;-60
2022/09/27 02:31:32;;;;;;;3.60;1.58;;;11.70;99.90;;;;;;4038731;29;20144;-61
2022/09/27 02:33:46;;;;;;;4.72;1.73;;;11.70;99.90;;;;;;4042623;29;20041;-60
2022/09/27 02:35:47;;;;;;;5.40;1.70;;;11.70;99.90;;;;;;4042872;29;20112;-60
2022/09/27 02:37:48;;;;;;;6.18;2.05;;;11.70;99.90;;;;;;4040228;29;20044;-60
2022/09/27 02:39:49;;;;;;;3.10;1.80;;;11.70;99.90;;;;;;4035228;29;20032;-60
2022/09/27 02:41:50;;;;;;;5.25;1.60;;;11.70;99.90;;;;;;4040275;29;20045;-60
2022/09/27 02:43:58;;;;;;;4.47;1.98;;;11.70;99.90;;;;;;4047075;29;20409;-60
2022/09/27 02:46:43;;;;;;;4.20;1.92;;;11.60;99.90;;;;;;4041175;29;20392;-61
2022/09/27 02:48:57;;;;;;;6.10;1.83;;;11.70;99.90;;;;;;4049066;29;20089;-60
2022/09/27 02:51:26;;;;;;;5.10;1.73;;;11.70;99.90;;;;;;4040631;29;20032;-62
2022/09/27 02:53:38;;;;;;;6.07;1.67;;;11.70;99.90;;;;;;4041864;29;20033;-60
2022/09/27 02:56:03;;;;;;;3.05;1.63;;;11.70;99.90;;;;;;4040921;29;20497;-60
2022/09/27 02:58:14;;;;;;;3.47;1.60;;;11.60;99.90;;;;;;4042004;29;20041;-60
2022/09/27 03:00:32;;;;;;;7.82;1.75;;;11.60;99.90;;;;;;4043136;29;20033;-60
2022/09/27 03:02:43;;;;;;;5.47;1.70;;;11.60;99.90;;;;;;4044085;29;20047;-60
2022/09/27 03:04:55;;;;;;;7.75;1.80;;;11.60;99.90;;;;;;4039212;29;20068;-61
2022/09/27 03:06:58;;;;;;;3.58;1.38;;;11.60;99.90;;;;;;4037200;29;20112;-62
2022/09/27 03:08:59;;;;;;;5.22;1.90;;;11.50;99.90;;;;;;4045515;29;20473;-61
2022/09/27 03:10:59;;;;;;;3.58;1.38;;;11.50;99.90;;;;;;4044371;29;20025;-61
2022/09/27 03:13:01;;;;;;;2.42;0.93;;;11.40;99.90;;;;;;4049664;29;20053;-60
2022/09/27 03:15:01;;;;;;;2.55;1.20;;;11.50;99.90;;;;;;4044811;29;20131;-61
2022/09/27 03:17:02;;;;;;;3.88;1.17;;;11.50;99.90;;;;;;4044215;29;20044;-60
2022/09/27 03:19:02;;;;;;;4.47;1.40;;;11.50;99.90;;;;;;4042694;29;20447;-60
2022/09/27 03:21:03;;;;;;;3.88;1.25;;;11.40;99.90;;;;;;4042351;29;20045;-61
2022/09/27 03:23:03;;;;;;;4.43;1.48;;;11.40;99.90;;;;;;4044736;29;20485;-60
2022/09/27 03:25:05;;;;;;;2.30;1.00;;;11.40;99.90;;;;;;4043612;29;20036;-63
2022/09/27 03:27:06;;;;;;;4.97;1.10;;;11.40;99.90;;;;;;4043113;29;20195;-61
2022/09/27 03:29:06;;;;;;;3.63;1.00;;;11.40;99.90;;;;;;4047037;29;20096;-60
2022/09/27 03:31:07;;;;;;;4.40;1.15;;;11.30;99.90;;;;;;4037281;29;20037;-60
2022/09/27 03:33:08;;;;;;;12.45;1.20;;;11.30;99.90;;;;;;4042820;29;20051;-61
2022/09/27 03:35:09;;;;;;;2.75;0.93;;;11.30;99.90;;;;;;4041077;29;20056;-61
2022/09/27 03:37:10;;;;;;;5.05;1.83;;;11.30;99.90;;;;;;4043066;29;20064;-60
2022/09/27 03:39:10;;;;;;;4.95;1.10;;;11.30;99.90;;;;;;4042044;29;20045;-60
2022/09/27 03:41:11;;;;;;;4.68;1.23;;;11.20;99.90;;;;;;4042126;29;20505;-61
2022/09/27 03:43:12;;;;;;;2.35;1.13;;;11.20;99.90;;;;;;4043777;29;20519;-60
2022/09/27 03:45:12;;;;;;;2.85;1.40;;;11.30;99.90;;;;;;4040251;29;20028;-61
2022/09/27 03:47:13;;;;;;;3.70;1.10;;;11.30;99.90;;;;;;4044242;29;20025;-61
2022/09/27 03:49:13;;;;;;;7.65;1.35;;;11.20;99.90;;;;;;4038470;29;20040;-60
2022/09/27 03:51:14;;;;;;;3.08;0.93;;;11.20;99.90;;;;;;4039562;29;20029;-60
2022/09/27 03:53:15;;;;;;;3.15;0.95;;;11.20;99.90;;;;;;4044588;29;20028;-60
2022/09/27 03:55:15;;;;;;;1.95;1.08;;;11.20;99.90;;;;;;4040189;29;20069;-61
2022/09/27 03:57:16;;;;;;;3.45;1.05;;;11.10;99.90;;;;;;4047780;29;20037;-61
2022/09/27 03:59:16;;;;;;;3.17;0.90;;;11.10;99.90;;;;;;4043345;29;20033;-61
2022/09/27 04:01:17;;;;;;;2.08;0.90;;;11.20;99.90;;;;;;4044833;29;20039;-61
2022/09/27 04:03:18;;;;;;;4.53;1.00;;;11.20;99.90;;;;;;4044040;29;20036;-61
2022/09/27 04:05:19;;;;;;;8.80;1.42;;;11.30;99.90;;;;;;4041387;29;20408;-61
2022/09/27 04:07:19;;;;;;;3.53;0.90;;;11.20;99.90;;;;;;4048117;29;20207;-61
2022/09/27 04:09:20;;;;;;;4.65;0.98;;;11.20;99.90;;;;;;4042582;29;20437;-61
2022/09/27 04:11:22;;;;;;;3.35;1.00;;;11.20;99.90;;;;;;4040495;29;20055;-61
2022/09/27 04:13:23;;;;;;;4.57;1.05;;;11.20;99.90;;;;;;4041005;29;20449;-61
2022/09/27 04:15:24;;;;;;;4.63;1.30;;;11.20;99.90;;;;;;4042822;29;20052;-61
2022/09/27 04:17:26;;;;;;;6.85;1.13;;;11.20;99.90;;;;;;4044496;29;20041;-62
2022/09/27 04:19:26;;;;;;;3.78;1.00;;;11.10;99.90;;;;;;4037376;29;20032;-63
2022/09/27 04:21:27;;;;;;;5.53;1.42;;;11.10;99.90;;;;;;4036017;29;20030;-62
2022/09/27 04:23:28;;;;;;;4.35;0.98;;;11.10;99.90;;;;;;4044442;29;20025;-62
2022/09/27 04:25:28;;;;;;;5.00;1.40;;;11.10;99.90;;;;;;4042890;29;20040;-61
2022/09/27 04:27:29;;;;;;;2.97;0.85;;;11.10;99.90;;;;;;4042801;29;20413;-63
2022/09/27 04:29:30;;;;;;;4.53;0.85;;;11.10;99.90;;;;;;4036894;29;20041;-62
2022/09/27 04:31:31;;;;;;;5.40;1.00;;;11.10;99.90;;;;;;4046177;29;20458;-62
2022/09/27 04:33:31;;;;;;;2.55;0.77;;;11.10;99.90;;;;;;4042828;29;20044;-62
2022/09/27 04:37:51;;;;;;;3.33;1.30;;;11.20;99.90;;;;;;4044482;29;20083;-61
2022/09/27 04:39:52;;;;;;;5.40;1.50;;;11.10;99.90;;;;;;4042648;29;20064;-62
2022/09/27 04:41:53;;;;;;;3.78;0.88;;;11.10;99.90;;;;;;4038917;29;20445;-62
2022/09/27 04:43:55;;;;;;;2.40;1.00;;;11.10;99.90;;;;;;4043300;29;20124;-62
2022/09/27 04:45:55;;;;;;;5.68;0.90;;;11.10;99.90;;;;;;4038485;29;20132;-62
2022/09/27 04:47:56;;;;;;;3.05;0.88;;;11.10;99.90;;;;;;4040769;29;20045;-62
2022/09/27 04:49:56;;;;;;;2.65;1.02;;;11.00;99.90;;;;;;4039335;29;20032;-62
2022/09/27 04:51:57;;;;;;;5.32;1.33;;;11.00;99.90;;;;;;4041472;29;20032;-61
2022/09/27 04:53:58;;;;;;;3.40;1.08;;;11.00;99.90;;;;;;4042623;29;20033;-62
2022/09/27 04:56:01;;;;;;;6.45;1.10;;;11.00;99.90;;;;;;4040082;29;20050;-62
2022/09/27 04:58:02;;;;;;;3.72;1.10;;;10.90;99.90;;;;;;4043352;29;20041;-62
2022/09/27 05:00:03;;;;;;;4.85;1.25;;;10.90;99.90;;;;;;4043020;29;20065;-62
2022/09/27 05:02:04;;;;;;;3.33;1.10;;;10.90;99.90;;;;;;4038329;29;20036;-62
2022/09/27 05:04:05;;;;;;;2.92;0.73;;;10.70;99.90;;;;;;4043201;29;20292;-62
2022/09/27 05:06:05;;;;;;;4.15;0.93;;;10.80;99.90;;;;;;4041580;29;20043;-61
2022/09/27 05:08:06;;;;;;;1.83;0.80;;;10.70;99.90;;;;;;4042904;29;20037;-62
2022/09/27 05:10:08;;;;;;;4.88;1.40;;;10.80;99.90;;;;;;4041767;29;20404;-64
2022/09/27 05:12:09;;;;;;;2.88;0.98;;;10.70;99.90;;;;;;4042349;29;20096;-62
2022/09/27 05:14:09;;;;;;;3.47;0.90;;;10.80;99.90;;;;;;4042030;29;20036;-62
2022/09/27 05:16:10;;;;;;;8.10;1.05;;;10.80;99.90;;;;;;4043163;29;20057;-62
2022/09/27 05:18:10;;;;;;;4.13;1.00;;;10.80;99.90;;;;;;4041533;29;20071;-62
2022/09/27 05:20:12;;;;;;;5.78;1.17;;;10.70;99.90;;;;;;4039544;29;20041;-63
2022/09/27 05:22:13;;;;;;;3.63;1.20;;;10.80;99.90;;;;;;4042100;29;20041;-62
2022/09/27 05:24:14;;;;;;;7.32;1.38;;;10.70;99.90;;;;;;4042855;29;20040;-62
2022/09/27 05:26:14;;;;;;;9.63;1.35;;;10.70;99.90;;;;;;4045936;29;20048;-62
2022/09/27 05:28:15;;;;;;;6.47;1.10;;;10.70;99.90;;;;;;4041530;29;20382;-62
2022/09/27 05:30:16;;;;;;;3.47;1.05;;;10.70;99.90;;;;;;4036434;29;20049;-62
2022/09/27 05:32:16;;;;;;;3.13;0.77;;;10.60;99.90;;;;;;4041817;29;20532;-63
2022/09/27 05:34:19;;;;;;;2.47;0.85;;;10.60;99.90;;;;;;4042756;29;20041;-64
2022/09/27 05:36:19;;;;;;;2.38;0.80;;;10.70;99.90;;;;;;4047013;29;20036;-64
2022/09/27 05:38:21;;;;;;;2.33;0.75;;;10.70;99.90;;;;;;4043177;29;20143;-64
2022/09/27 05:40:23;;;;;;;3.63;0.90;;;10.70;99.90;;;;;;4043948;29;20037;-64
2022/09/27 05:42:24;;;;;;;7.38;1.40;;;10.70;99.90;;;;;;4045529;29;20101;-64
2022/09/27 05:44:24;;;;;;;2.83;0.80;;;10.70;99.90;;;;;;4043666;29;20037;-63
2022/09/27 05:46:25;;;;;;;3.38;0.95;;;10.70;99.90;;;;;;4034494;29;20036;-63
2022/09/27 05:48:29;;;;;;;2.30;1.08;;;10.70;99.90;;;;;;4044378;29;20036;-63
2022/09/27 05:50:30;;;;;;;2.03;0.63;;;10.70;99.90;;;;;;4059779;29;20051;-64
2022/09/27 05:52:30;;;;;;;2.08;0.70;;;10.70;99.90;;;;;;4037380;29;20066;-64
2022/09/27 05:54:31;;;;;;;2.10;1.02;;;10.80;99.90;;;;;;4036938;29;20049;-64
2022/09/27 05:56:32;;;;;;;2.70;1.08;;;10.80;99.90;;;;;;4038398;29;20515;-64
2022/09/27 05:58:33;;;;;;;5.53;1.00;;;10.80;99.90;;;;;;4036968;29;20052;-64
2022/09/27 06:00:35;;;;;;;1.85;0.70;;;10.80;99.90;;;;;;4035046;29;20127;-63
2022/09/27 06:02:35;;;;;;;1.38;0.90;;;10.80;99.90;;;;;;4036438;29;20514;-64
2022/09/27 06:04:36;;;;;;;2.17;0.57;;;10.90;99.90;;;;;;4037717;29;20076;-64
2022/09/27 06:06:37;;;;;;;2.70;0.98;;;10.90;99.90;;;;;;4037556;29;20113;-63
2022/09/27 06:08:38;;;;;;;3.22;0.93;;;10.90;99.90;;;;;;4039509;29;20702;-64
2022/09/27 06:10:40;;;;;;;4.13;1.30;;;10.80;99.90;;;;;;4037199;29;20060;-63
2022/09/27 06:12:41;;;;;;;2.07;1.10;;;10.80;99.90;;;;;;4039687;29;20180;-63
2022/09/27 06:14:41;;;;;;;2.33;0.90;;;10.80;99.90;;;;;;4037646;29;20768;-63
2022/09/27 06:16:42;;;;;;;1.83;0.80;;;10.80;99.90;;;;;;4034863;29;20256;-63
2022/09/27 06:18:43;;;;;;;5.68;1.00;;;10.70;99.90;;;;;;4041328;29;20104;-64
2022/09/27 06:20:44;;;;;;;1.55;0.70;;;10.70;99.90;;;;;;4039414;29;20124;-63
2022/09/27 06:22:45;;;;;;;1.52;0.73;;;10.80;99.90;;;;;;4035573;29;20045;-63
2022/09/27 06:24:46;;;;;;;1.92;0.63;;;10.70;99.90;;;;;;4051908;29;20108;-63
2022/09/27 06:26:46;;;;;;;4.55;0.88;;;10.70;99.90;;;;;;4050293;29;20507;-63
2022/09/27 06:28:47;;;;;;;2.25;0.60;;;10.80;99.90;;;;;;4039315;29;20464;-63
2022/09/27 06:30:49;;;;;;;2.92;0.98;;;10.80;99.90;;;;;;4037925;29;20054;-63
2022/09/27 06:32:56;;;;;;;3.22;1.00;;;10.80;99.90;;;;;;4037808;29;20033;-63
2022/09/27 06:34:56;;;;;;;0.98;0.57;;;10.80;99.90;;;;;;4039036;29;20049;-63
2022/09/27 06:36:57;;;;;;;2.40;1.02;;;10.80;99.90;;;;;;4041257;29;20485;-64
2022/09/27 06:39:00;;;;;;;1.33;0.70;;;10.80;99.90;;;;;;4039572;29;20056;-64
2022/09/27 06:41:02;;;;;;;6.43;1.00;;;10.80;99.90;;;;;;4041653;29;20032;-68
2022/09/27 06:43:08;;;;;;;2.15;1.00;;;10.80;99.90;;;;;;4036648;29;20100;-64
2022/09/27 06:45:09;;;;;;;4.35;0.82;;;10.90;99.90;;;;;;4048911;29;20099;-64
2022/09/27 06:47:10;;;;;;;4.43;0.55;;;10.90;99.90;;;;;;4043279;29;20460;-63
2022/09/27 06:49:11;;;;;;;2.95;1.00;;;10.90;99.90;;;;;;4050611;29;20058;-64
2022/09/27 06:51:11;;;;;;;1.40;0.70;;;10.90;99.90;;;;;;4041809;29;20040;-63
2022/09/27 06:53:14;;;;;;;2.75;0.70;;;10.90;99.90;;;;;;4035991;29;20040;-63
2022/09/27 06:55:15;;;;;;;2.47;1.02;;;10.90;99.90;;;;;;4055709;29;20040;-63
2022/09/27 07:00:22;;;;;;;2.17;0.63;;;10.90;99.90;;;;;;4040798;29;20036;-63
2022/09/27 07:01:56;;;;;;;2.05;0.60;;;10.90;99.90;;;;;;4038526;29;20060;-63
2022/09/27 07:03:57;;;;;;;3.85;0.60;;;10.90;99.90;;;;;;4039418;29;20081;-63
2022/09/27 07:06:00;;;;;;;4.50;1.17;;;10.90;99.90;;;;;;4037042;29;20044;-64
2022/09/27 07:08:00;;;;;;;0.90;0.60;;;10.90;99.90;;;;;;4039104;29;20040;-63
2022/09/27 07:10:01;;;;;;;2.88;0.88;;;10.80;99.90;;;;;;4038215;29;20454;-64
2022/09/27 07:12:01;;;;;;;4.40;1.00;;;10.90;99.90;;;;;;4038215;29;20041;-64
2022/09/27 07:14:07;;;;;;;1.55;0.77;;;10.90;99.90;;;;;;4040350;29;20650;-64
2022/09/27 07:16:09;;;;;;;2.65;0.70;;;10.90;99.90;;;;;;4040286;29;20045;-64
2022/09/27 07:18:10;;;;;;;3.70;0.70;;;11.00;99.90;;;;;;4040769;29;20053;-63
2022/09/27 07:20:10;;;;;;;2.10;0.50;;;11.00;99.90;;;;;;4040863;29;20052;-64
2022/09/27 07:22:11;;;;;;;2.28;0.65;;;11.00;99.90;;;;;;4040808;29;20175;-63
2022/09/27 07:24:11;;;;;;;1.75;0.65;;;11.00;99.90;;;;;;4039523;29;21124;-63
2022/09/27 07:26:12;;;;;;;3.72;0.73;;;11.00;99.90;;;;;;4037109;29;20434;-63
2022/09/27 07:28:15;;;;;;;3.13;0.50;;;11.10;99.90;;;;;;4042371;29;20048;-63
2022/09/27 07:30:15;;;;;;;1.70;0.57;;;11.10;99.90;;;;;;4041521;29;20397;-63
2022/09/27 07:32:16;;;;;;;3.47;0.73;;;11.20;99.90;;;;;;4039735;29;20041;-63
2022/09/27 07:34:17;;;;;;;4.45;1.17;;;11.20;99.90;;;;;;4038682;29;20043;-63
2022/09/27 07:36:18;;;;;;;1.42;0.45;;;11.20;99.90;;;;;;4040226;29;20092;-64
2022/09/27 07:38:19;;;;;;;2.92;1.20;;;11.30;99.90;;;;;;4047519;29;20034;-64
2022/09/27 07:40:19;;;;;;;2.78;1.15;;;11.30;99.90;;;;;;4040198;29;20055;-63
2022/09/27 07:42:20;;;;;;;0.95;0.55;;;11.30;99.90;;;;;;4039591;29;20044;-63
2022/09/27 07:44:20;;;;;;;1.50;0.35;;;11.30;99.90;;;;;;4040098;29;20072;-63
2022/09/27 07:46:21;;;;;;;2.13;0.82;;;11.40;99.90;;;;;;4041300;29;20036;-63
2022/09/27 07:48:22;;;;;;;0.93;0.40;;;11.40;99.90;;;;;;4040003;29;20049;-63
2022/09/27 07:50:22;;;;;;;1.48;0.60;;;11.40;99.90;;;;;;4037983;29;20045;-63
2022/09/27 07:52:23;;;;;;;3.17;0.70;;;11.40;99.90;;;;;;4038879;29;20044;-64
2022/09/27 07:54:23;;;;;;;4.22;0.80;;;11.50;99.90;;;;;;4032727;29;20069;-63
2022/09/27 07:56:24;;;;;;;3.28;0.65;;;11.40;99.90;;;;;;4036348;29;20037;-63
2022/09/27 07:58:25;;;;;;;1.27;0.43;;;11.40;99.90;;;;;;4038448;29;20128;-63
2022/09/27 08:00:26;;;;;;;1.73;0.50;;;11.50;99.90;;;;;;4033677;29;20037;-63
2022/09/27 08:02:26;;;;;;;2.33;0.70;;;11.40;99.90;;;;;;4040037;29;20520;-63
2022/09/27 08:04:27;;;;;;;2.25;0.70;;;11.40;99.90;;;;;;4038494;29;20055;-63
2022/09/27 08:06:28;;;;;;;1.25;0.47;;;11.40;99.90;;;;;;4055504;29;20028;-63
2022/09/27 08:08:29;;;;;;;1.02;0.52;;;11.40;99.90;;;;;;4040312;29;20036;-64
2022/09/27 08:10:31;;;;;;;1.33;0.80;;;11.50;99.90;;;;;;4039312;29;20456;-64
2022/09/27 08:12:32;;;;;;;1.48;0.60;;;11.50;99.90;;;;;;4038285;29;20055;-67
2022/09/27 08:14:33;;;;;;;1.75;0.85;;;11.50;99.90;;;;;;4038032;29;20061;-65
2022/09/27 08:16:34;;;;;;;1.23;0.55;;;11.60;99.90;;;;;;4038932;29;20136;-64
2022/09/27 08:18:34;;;;;;;1.77;0.52;;;11.60;99.90;;;;;;4038476;29;20044;-63
2022/09/27 08:20:35;;;;;;;1.20;0.68;;;11.60;99.90;;;;;;4038894;29;20109;-64
2022/09/27 08:22:42;;;;;;;0.43;0.40;;;11.60;99.90;;;;;;4039650;29;20048;-64
2022/09/27 08:24:43;;;;;;;2.10;0.82;;;11.50;99.90;;;;;;4038720;29;20044;-64
2022/09/27 08:26:43;;;;;;;2.38;0.82;;;11.50;99.90;;;;;;4036660;29;20055;-63
2022/09/27 08:28:46;;;;;;;2.75;0.80;;;11.50;99.90;;;;;;4036764;29;20140;-63
2022/09/27 08:30:48;;;;;;;2.22;0.90;;;11.60;99.90;;;;;;4038592;29;20029;-63
2022/09/27 08:32:53;;;;;;;1.97;0.60;;;11.50;99.90;;;;;;4060867;29;20123;-64
2022/09/27 08:34:53;;;;;;;1.83;0.50;;;11.50;99.90;;;;;;4038576;29;20069;-63
2022/09/27 08:36:54;;;;;;;2.78;0.70;;;11.50;99.90;;;;;;4053046;29;20051;-63
2022/09/27 08:38:57;;;;;;;0.70;0.47;;;11.50;99.90;;;;;;4037140;29;20043;-63
2022/09/27 08:41:05;;;;;;;1.70;0.70;;;11.50;99.90;;;;;;4053322;29;20696;-63
2022/09/27 08:43:45;;;;;;;4.53;1.00;;;11.60;99.90;;;;;;4033950;29;20068;-64
2022/09/27 08:46:18;;;;;;;2.65;0.60;;;11.60;99.90;;;;;;4036941;29;20069;-63
2022/09/27 08:48:20;;;;;;;2.10;0.55;;;11.70;99.90;;;;;;4052906;29;21108;-64
2022/09/27 08:50:35;;;;;;;1.10;0.47;;;11.70;99.90;;;;;;4036406;29;20033;-64
2022/09/27 08:52:45;;;;;;;2.35;0.75;;;11.70;99.90;;;;;;4037316;29;20052;-64
2022/09/27 08:54:47;;;;;;;2.17;0.40;;;11.70;99.90;;;;;;4039677;29;20043;-63
2022/09/27 08:56:51;;;;;;;0.67;0.53;;;11.70;99.90;;;;;;4052622;29;20036;-64
2022/09/27 08:59:27;;;;;;;3.55;0.80;;;11.70;99.90;;;;;;4037144;29;20041;-63
2022/09/27 09:01:27;;;;;;;1.08;0.63;;;11.60;99.90;;;;;;4037931;29;20036;-63
2022/09/27 09:03:39;;;;;;;0.60;0.60;;;11.60;99.90;;;;;;4038470;29;20101;-64
2022/09/27 09:05:39;;;;;;;2.53;1.00;;;11.60;99.90;;;;;;4037018;29;20048;-63
2022/09/27 09:07:44;;;;;;;3.33;0.82;;;11.50;99.90;;;;;;4037894;29;20626;-64
2022/09/27 09:12:45;;;;;;;2.08;0.70;;;11.60;99.90;;;;;;4039214;29;20124;-64
2022/09/27 09:13:00;;;;;;;5.95;1.25;;;11.60;99.90;;;;;;4038792;29;20139;-64
2022/09/27 09:15:15;;;;;;;2.92;0.93;;;11.60;99.90;;;;;;4036284;29;20045;-64
2022/09/27 09:17:40;;;;;;;2.08;0.85;;;11.60;99.90;;;;;;4038430;29;20045;-64
2022/09/27 09:20:07;;;;;;;5.05;1.15;;;11.70;99.90;;;;;;4039469;29;20049;-64
2022/09/27 09:22:51;;;;;;;2.85;1.08;;;11.70;99.90;;;;;;4037241;29;20029;-64
2022/09/27 09:25:06;;;;;;;2.05;1.08;;;11.70;99.90;;;;;;4037498;29;20173;-63
2022/09/27 09:27:31;;;;;;;3.10;1.02;;;11.80;99.90;;;;;;4033513;29;20052;-64
2022/09/27 09:29:56;;;;;;;2.08;1.02;;;11.70;99.90;;;;;;4039148;29;20049;-64
2022/09/27 09:32:30;;;;;;;1.48;0.98;;;11.80;99.90;;;;;;4053252;29;20040;-63
2022/09/27 09:34:40;;;;;;;2.83;1.30;;;11.80;99.90;;;;;;4040931;29;20439;-63
2022/09/27 09:37:10;;;;;;;3.65;1.10;;;11.80;99.90;;;;;;4037300;29;20071;-63
2022/09/27 09:39:20;;;;;;;2.92;1.33;;;11.80;99.90;;;;;;4052944;29;20602;-63
2022/09/27 09:41:32;;;;;;;2.20;1.40;;;11.90;99.90;;;;;;4036885;29;20378;-64
2022/09/27 09:43:37;;;;;;;3.38;1.83;;;11.90;99.90;;;;;;4038134;29;20087;-64
2022/09/27 09:45:49;;;;;;;1.48;1.02;;;11.90;99.90;;;;;;4038447;29;20045;-64
2022/09/27 09:48:15;;;;;;;4.47;1.50;;;12.00;99.90;;;;;;4038576;29;20052;-64
2022/09/27 09:50:45;;;;;;;3.28;1.25;;;12.00;99.90;;;;;;4036323;29;20408;-63
2022/09/27 09:52:53;;;;;;;2.45;1.40;;;12.10;99.90;;;;;;4036908;29;20049;-63
2022/09/27 09:55:05;;;;;;;2.60;1.00;;;12.10;99.90;;;;;;4039200;29;20047;-64
2022/09/27 09:57:14;;;;;;;2.30;1.20;;;12.20;99.90;;;;;;4037455;29;20040;-64
2022/09/27 09:59:21;;;;;;;5.90;1.55;;;12.20;99.90;;;;;;4037135;29;20171;-63
2022/09/27 10:01:27;;;;;;;2.67;1.50;;;12.20;99.90;;;;;;4037285;29;20052;-63
2022/09/27 10:03:27;;;;;;;3.22;1.50;;;12.20;99.90;;;;;;4053248;29;20036;-64
2022/09/27 10:05:28;;;;;;;2.38;1.20;;;12.20;99.90;;;;;;4038361;29;20100;-64
2022/09/27 10:07:32;;;;;;;3.05;1.58;;;12.20;99.90;;;;;;4038746;29;20044;-63
2022/09/27 10:09:32;;;;;;;2.70;1.50;;;12.30;99.90;;;;;;4037053;29;20513;-64
2022/09/27 10:11:42;;;;;;;3.42;1.13;;;12.20;99.90;;;;;;4035663;29;20045;-64
2022/09/27 10:13:42;;;;;;;3.05;1.48;;;12.30;99.90;;;;;;4040218;29;20378;-63
2022/09/27 10:16:01;;;;;;;2.95;1.00;;;12.30;99.90;;;;;;4037145;29;20507;-64
2022/09/27 10:18:02;;;;;;;2.67;1.10;;;12.30;99.90;;;;;;4036695;29;20080;-64
2022/09/27 10:20:05;;;;;;;2.17;1.30;;;12.40;99.90;;;;;;4046771;29;20898;-64
2022/09/27 10:22:36;;;;;;;4.30;1.67;;;12.30;99.90;;;;;;4036689;29;20037;-63
2022/09/27 10:24:56;;;;;;;2.40;0.90;;;12.30;99.90;;;;;;4048541;29;20040;-64
2022/09/27 10:26:59;;;;;;;6.20;0.98;;;12.30;99.90;;;;;;4040841;29;20049;-63
2022/09/27 10:29:18;;;;;;;3.40;0.93;;;12.30;99.90;;;;;;4035753;29;20064;-63
2022/09/27 10:31:20;;;;;;;1.35;0.98;;;12.20;99.90;;;;;;4038681;29;20096;-63
2022/09/27 10:33:22;;;;;;;1.90;0.73;;;12.20;99.90;;;;;;4037550;29;20037;-63
2022/09/27 10:35:28;;;;;;;3.17;0.98;;;12.30;99.90;;;;;;4038061;29;20045;-63
2022/09/27 10:37:29;;;;;;;2.65;1.30;;;12.30;99.90;;;;;;4035988;29;20522;-63
2022/09/27 10:39:30;;;;;;;4.03;1.40;;;12.30;99.90;;;;;;4037387;29;20051;-64
2022/09/27 10:41:40;;;;;;;3.33;1.40;;;12.30;99.90;;;;;;4036694;29;20804;-63
2022/09/27 10:43:41;;;;;;;3.03;1.40;;;12.30;99.90;;;;;;4038811;29;20057;-63
2022/09/27 10:45:42;;;;;;;1.90;1.30;;;12.30;99.90;;;;;;4037126;29;20044;-63
2022/09/27 10:47:43;;;;;;;2.65;1.75;;;12.40;99.90;;;;;;4036968;29;20540;-64
2022/09/27 10:49:43;;;;;;;3.90;2.13;;;12.30;99.90;;;;;;4035909;29;20048;-63
2022/09/27 10:51:49;;;;;;;3.67;1.90;;;12.30;99.90;;;;;;4036710;29;20034;-63
2022/09/27 10:53:49;;;;;;;4.00;2.15;;;12.30;99.90;;;;;;4038003;29;20037;-63
2022/09/27 10:55:51;;;;;;;4.00;2.00;;;12.30;99.90;;;;;;4036413;29;20045;-63
2022/09/27 10:57:54;;;;;;;2.30;2.10;;;12.30;99.90;;;;;;4035240;29;20057;-63
2022/09/27 10:59:55;;;;;;;;;;;12.20;99.90;;;;;;4035004;29;20045;-63
2022/09/27 11:01:57;;;;;;;5.93;2.50;;;12.30;99.90;;;;;;4038036;29;21160;-63